Time;durP1;ratioP1;P1;durP2;ratioP2;P2;SDS_P1;SDS_P2;PMS_P1;PMS_P2;Temp;Humidity;BMP_temperature;BMP_pressure;BME280_temperature;BME280_humidity;BME280_pressure;Samples;Min_cycle;Max_cycle;Signal;HPM_P1;HPM_P2
2023/12/08 00:00:12;;;;;;;;;;;;;;;20.72;41.41;101232.59;2071436;28;6041;-72
2023/12/08 00:01:14;;;;;;;;;;;;;;;20.73;41.57;101237.00;2072820;28;1524;-73
2023/12/08 00:02:15;;;;;;;;;;;;;;;20.73;41.50;101227.59;2070157;28;1826;-72
2023/12/08 00:03:17;;;;;;;;;;;;;;;20.74;41.39;101226.97;2071234;28;2104;-72
2023/12/08 00:04:18;;;;;;;;;;;;;;;20.75;41.50;101227.69;2070311;28;1656;-72
2023/12/08 00:05:20;;;;;;;;;;;;;;;20.75;41.49;101237.06;2070861;28;1951;-73
2023/12/08 00:06:21;;;;;;;;;;;;;;;20.76;41.42;101232.81;2072245;28;1532;-72
2023/12/08 00:07:23;;;;;;;;;;;;;;;20.76;41.31;101229.19;2073345;28;1814;-72
2023/12/08 00:08:24;;;;;;;;;;;;;;;20.77;41.26;101228.53;2072435;28;1918;-72
2023/12/08 00:09:26;;;;;;;;;;;;;;;20.78;41.37;101232.19;2069840;28;1906;-73
2023/12/08 00:10:27;;;;;;;;;;;;;;;20.78;41.23;101226.44;2071681;28;2327;-73
2023/12/08 00:11:28;;;;;;;;;;;;;;;20.78;41.33;101224.28;2070835;28;1949;-72
2023/12/08 00:12:30;;;;;;;;;;;;;;;20.78;41.18;101227.16;2071207;28;1858;-72
2023/12/08 00:13:31;;;;;;;;;;;;;;;20.80;41.19;101227.28;2066929;28;2060;-73
2023/12/08 00:14:32;;;;;;;;;;;;;;;20.80;41.29;101221.50;2072565;28;2022;-72
2023/12/08 00:15:34;;;;;;;;;;;;;;;20.80;41.27;101220.75;2068905;28;1919;-73
2023/12/08 00:16:35;;;;;;;;;;;;;;;20.81;41.27;101211.47;2070514;28;1989;-73
2023/12/08 00:17:37;;;;;;;;;;;;;;;20.81;41.15;101228.75;2069147;28;2105;-73
2023/12/08 00:18:38;;;;;;;;;;;;;;;20.81;41.26;101217.25;2072817;28;1996;-73
2023/12/08 00:19:40;;;;;;;;;;;;;;;20.81;41.13;101219.38;2070633;28;1957;-73
2023/12/08 00:20:42;;;;;;;;;;;;;;;20.82;41.11;101213.00;2067258;28;2073;-72
2023/12/08 00:21:43;;;;;;;;;;;;;;;20.82;41.41;101215.09;2066690;28;1888;-73
2023/12/08 00:22:45;;;;;;;;;;;;;;;20.82;41.63;101213.00;2072443;28;1997;-72
2023/12/08 00:23:46;;;;;;;;;;;;;;;20.81;41.50;101205.72;2066981;28;1647;-73
2023/12/08 00:24:48;;;;;;;;;;;;;;;20.82;41.47;101212.22;2071618;28;1954;-72
2023/12/08 00:25:49;;;;;;;;;;;;;;;20.81;41.73;101202.84;2069682;28;1883;-73
2023/12/08 00:26:51;;;;;;;;;;;;;;;20.81;41.56;101207.88;2071086;28;2144;-72
2023/12/08 00:27:52;;;;;;;;;;;;;;;20.81;41.41;101210.75;2070993;28;1919;-73
2023/12/08 00:28:54;;;;;;;;;;;;;;;20.80;41.63;101207.13;2067959;28;2025;-73
2023/12/08 00:29:55;;;;;;;;;;;;;;;20.80;41.57;101217.88;2072620;28;1611;-73
2023/12/08 00:30:57;;;;;;;;;;;;;;;20.80;41.41;101221.50;2071973;28;6069;-72
2023/12/08 00:31:58;;;;;;;;;;;;;;;20.81;41.44;101220.13;2069127;28;1992;-74
2023/12/08 00:32:59;;;;;;;;;;;;;;;20.79;41.38;101214.25;2071207;28;1958;-72
2023/12/08 00:34:01;;;;;;;;;;;;;;;20.78;41.41;101212.03;2072354;28;1959;-73
2023/12/08 00:35:03;;;;;;;;;;;;;;;20.80;41.45;101221.50;2071833;28;2002;-73
2023/12/08 00:36:11;;;;;;;;;;;;;;;20.78;41.45;101212.78;2071398;28;2108;-72
2023/12/08 00:37:13;;;;;;;;;;;;;;;20.79;41.56;101213.53;2071445;28;1947;-73
2023/12/08 00:38:14;;;;;;;;;;;;;;;20.78;41.57;101215.66;2069395;28;1940;-72
2023/12/08 00:39:17;;;;;;;;;;;;;;;20.77;41.45;101216.28;2072164;28;1941;-72
2023/12/08 00:40:18;;;;;;;;;;;;;;;20.77;41.42;101216.28;2070581;28;1675;-73
2023/12/08 00:41:19;;;;;;;;;;;;;;;20.77;41.40;101214.16;2071570;28;1961;-72
2023/12/08 00:42:21;;;;;;;;;;;;;;;20.76;41.52;101215.56;2071348;28;1905;-72
2023/12/08 00:43:22;;;;;;;;;;;;;;;20.77;41.39;101211.28;2072010;28;1594;-72
2023/12/08 00:44:24;;;;;;;;;;;;;;;20.76;41.53;101209.78;2069073;28;1786;-73
2023/12/08 00:45:25;;;;;;;;;;;;;;;20.75;41.54;101208.28;2067447;28;1802;-72
2023/12/08 00:46:26;;;;;;;;;;;;;;;20.75;41.48;101208.28;2068031;28;1556;-72
2023/12/08 00:47:28;;;;;;;;;;;;;;;20.75;41.57;101202.53;2066698;28;2113;-73
2023/12/08 00:48:30;;;;;;;;;;;;;;;20.75;41.49;101207.56;2067937;28;1974;-73
2023/12/08 00:49:31;;;;;;;;;;;;;;;20.76;41.44;101206.91;2068887;28;2065;-73
2023/12/08 00:50:33;;;;;;;;;;;;;;;20.75;41.53;101204.66;2070778;28;2281;-72
2023/12/08 00:51:34;;;;;;;;;;;;;;;20.77;41.45;101199.03;2069882;28;2311;-71
2023/12/08 00:52:36;;;;;;;;;;;;;;;20.77;41.31;101196.88;2068814;28;1651;-73
2023/12/08 00:53:38;;;;;;;;;;;;;;;20.77;41.34;101196.88;2069612;28;1564;-73
2023/12/08 00:54:39;;;;;;;;;;;;;;;20.78;41.31;101194.78;2072355;28;1742;-73
2023/12/08 00:55:41;;;;;;;;;;;;;;;20.78;41.43;101189.75;2071150;28;1914;-71
2023/12/08 00:56:42;;;;;;;;;;;;;;;20.78;41.37;101189.75;2070485;28;1974;-73
2023/12/08 00:57:44;;;;;;;;;;;;;;;20.78;41.39;101194.78;2068303;28;1876;-73
2023/12/08 00:58:46;;;;;;;;;;;;;;;20.78;41.50;101198.38;2069019;28;1951;-73
2023/12/08 00:59:47;;;;;;;;;;;;;;;20.79;41.28;101191.22;2070131;28;2213;-72
2023/12/08 01:00:49;;;;;;;;;;;;;;;20.80;41.53;101191.97;2069202;28;6163;-73
2023/12/08 01:01:51;;;;;;;;;;;;;;;20.80;41.50;101186.97;2071826;28;1612;-73
2023/12/08 01:02:52;;;;;;;;;;;;;;;20.81;41.32;101188.47;2069637;28;1931;-73
2023/12/08 01:03:54;;;;;;;;;;;;;;;20.81;41.44;101193.47;2071349;28;1935;-72
2023/12/08 01:04:56;;;;;;;;;;;;;;;20.80;41.50;101189.84;2069991;28;1472;-73
2023/12/08 01:05:57;;;;;;;;;;;;;;;20.80;41.54;101192.75;2069123;28;1985;-73
2023/12/08 01:06:59;;;;;;;;;;;;;;;20.79;41.40;101191.22;2070697;28;2046;-72
2023/12/08 01:08:00;;;;;;;;;;;;;;;20.80;41.40;101189.84;2070099;28;1909;-72
2023/12/08 01:09:01;;;;;;;;;;;;;;;20.80;41.59;101204.25;2071205;28;2369;-72
2023/12/08 01:10:03;;;;;;;;;;;;;;;20.79;41.42;101202.75;2072830;28;1802;-73
2023/12/08 01:11:07;;;;;;;;;;;;;;;20.79;41.49;101191.22;2069059;28;1874;-72
2023/12/08 01:12:09;;;;;;;;;;;;;;;20.79;41.50;101187.63;2068950;28;1941;-72
2023/12/08 01:13:10;;;;;;;;;;;;;;;20.78;41.56;101201.25;2071749;28;1900;-71
2023/12/08 01:14:12;;;;;;;;;;;;;;;20.78;41.42;101189.75;2072533;28;1615;-72
2023/12/08 01:15:13;;;;;;;;;;;;;;;20.78;41.42;101195.50;2071936;28;1812;-72
2023/12/08 01:16:15;;;;;;;;;;;;;;;20.78;41.43;101186.88;2068990;28;1958;-72
2023/12/08 01:17:16;;;;;;;;;;;;;;;20.77;41.55;101182.50;2070676;28;1942;-72
2023/12/08 01:18:18;;;;;;;;;;;;;;;20.77;41.49;101188.25;2070724;28;2168;-73
2023/12/08 01:19:19;;;;;;;;;;;;;;;20.77;41.41;101185.38;2070516;28;2029;-73
2023/12/08 01:20:21;;;;;;;;;;;;;;;20.75;41.41;101182.38;2072065;28;1744;-73
2023/12/08 01:21:22;;;;;;;;;;;;;;;20.76;41.44;101181.00;2068747;28;1565;-73
2023/12/08 01:22:27;;;;;;;;;;;;;;;20.75;41.56;101191.03;2070123;28;1971;-73
2023/12/08 01:23:28;;;;;;;;;;;;;;;20.75;41.47;101193.91;2070480;28;1734;-73
2023/12/08 01:24:30;;;;;;;;;;;;;;;20.76;41.39;101191.78;2070020;28;1929;-73
2023/12/08 01:25:31;;;;;;;;;;;;;;;20.74;41.50;101192.41;2070678;28;1714;-72
2023/12/08 01:26:33;;;;;;;;;;;;;;;20.74;41.49;101178.03;2071653;28;2061;-72
2023/12/08 01:27:35;;;;;;;;;;;;;;;20.74;41.47;101180.91;2069735;28;1794;-73
2023/12/08 01:28:36;;;;;;;;;;;;;;;20.75;41.63;101182.38;2069194;28;1907;-72
2023/12/08 01:29:37;;;;;;;;;;;;;;;20.76;41.43;101177.41;2071878;28;1623;-73
2023/12/08 01:30:39;;;;;;;;;;;;;;;20.76;41.39;101175.25;2066128;28;6120;-73
2023/12/08 01:31:40;;;;;;;;;;;;;;;20.76;41.45;101181.00;2070106;28;1678;-73
2023/12/08 01:32:42;;;;;;;;;;;;;;;20.76;41.39;101175.25;2069310;28;1587;-73
2023/12/08 01:33:43;;;;;;;;;;;;;;;20.76;41.35;101169.50;2071430;28;1945;-73
2023/12/08 01:34:45;;;;;;;;;;;;;;;20.76;41.47;101169.50;2069300;28;1591;-72
2023/12/08 01:35:47;;;;;;;;;;;;;;;20.77;41.47;101167.38;2069957;28;2108;-72
2023/12/08 01:36:48;;;;;;;;;;;;;;;20.77;41.33;101165.22;2071060;28;1947;-73
2023/12/08 01:37:50;;;;;;;;;;;;;;;20.77;41.40;101165.22;2069941;28;2285;-73
2023/12/08 01:38:51;;;;;;;;;;;;;;;20.78;41.41;101166.72;2069416;28;2256;-72
2023/12/08 01:39:53;;;;;;;;;;;;;;;20.78;41.46;101160.97;2068451;28;1946;-73
2023/12/08 01:40:54;;;;;;;;;;;;;;;20.78;41.41;101160.97;2067873;28;1798;-73
2023/12/08 01:41:56;;;;;;;;;;;;;;;20.79;41.44;101168.22;2071878;28;1849;-73
2023/12/08 01:42:57;;;;;;;;;;;;;;;20.79;41.55;101162.44;2070795;28;1890;-72
2023/12/08 01:43:59;;;;;;;;;;;;;;;20.78;41.56;101172.47;2069960;28;2028;-72
2023/12/08 01:45:00;;;;;;;;;;;;;;;20.79;41.40;101162.44;2070640;28;2029;-73
2023/12/08 01:46:01;;;;;;;;;;;;;;;20.78;41.60;101166.72;2069910;28;2088;-73
2023/12/08 01:47:03;;;;;;;;;;;;;;;20.78;41.49;101154.47;2068614;28;1615;-72
2023/12/08 01:48:04;;;;;;;;;;;;;;;20.77;41.51;101159.47;2070935;28;1967;-73
2023/12/08 01:49:06;;;;;;;;;;;;;;;20.78;41.68;101155.22;2070753;28;2058;-73
2023/12/08 01:50:08;;;;;;;;;;;;;;;20.78;41.55;101160.97;2070456;28;2040;-73
2023/12/08 01:51:09;;;;;;;;;;;;;;;20.77;41.76;101152.97;2070538;28;2021;-72
2023/12/08 01:52:11;;;;;;;;;;;;;;;20.77;41.43;101158.72;2071065;28;1860;-73
2023/12/08 01:53:12;;;;;;;;;;;;;;;20.76;41.63;101163.75;2071572;28;1959;-73
2023/12/08 01:54:14;;;;;;;;;;;;;;;20.77;41.67;101152.97;2070268;28;2121;-73
2023/12/08 01:55:15;;;;;;;;;;;;;;;20.76;41.54;101152.25;2070641;28;2201;-73
2023/12/08 01:56:17;;;;;;;;;;;;;;;20.77;41.49;101162.34;2075431;28;1980;-73
2023/12/08 01:57:19;;;;;;;;;;;;;;;20.76;41.69;101158.00;2071243;28;1965;-72
2023/12/08 01:58:21;;;;;;;;;;;;;;;20.76;41.44;101152.25;2063194;28;1954;-72
2023/12/08 01:59:22;;;;;;;;;;;;;;;20.75;41.55;101156.47;2069980;28;2320;-72
2023/12/08 02:00:23;;;;;;;;;;;;;;;20.75;41.52;101147.84;2070961;28;6203;-72
2023/12/08 02:01:25;;;;;;;;;;;;;;;20.74;41.54;101152.13;2069772;28;1910;-73
2023/12/08 02:02:26;;;;;;;;;;;;;;;20.74;41.45;101143.50;2062475;28;1683;-73
2023/12/08 02:03:28;;;;;;;;;;;;;;;20.74;41.50;101148.50;2068944;28;1705;-72
2023/12/08 02:04:29;;;;;;;;;;;;;;;20.73;41.52;101147.00;2072091;28;1861;-73
2023/12/08 02:05:31;;;;;;;;;;;;;;;20.74;41.61;101152.13;2070661;28;1985;-72
2023/12/08 02:06:33;;;;;;;;;;;;;;;20.74;41.58;101149.25;2068080;28;2204;-73
2023/12/08 02:07:34;;;;;;;;;;;;;;;20.73;41.55;101147.00;2070693;28;1981;-72
2023/12/08 02:08:35;;;;;;;;;;;;;;;20.73;41.67;101147.78;2070299;28;1607;-71
2023/12/08 02:09:37;;;;;;;;;;;;;;;20.72;41.71;101140.53;2069128;28;1611;-73
2023/12/08 02:10:38;;;;;;;;;;;;;;;20.71;41.60;101139.78;2071905;28;1977;-73
2023/12/08 02:11:40;;;;;;;;;;;;;;;20.72;41.75;101140.53;2071261;28;1611;-72
2023/12/08 02:12:41;;;;;;;;;;;;;;;20.73;41.62;101147.78;2070653;28;1920;-72
2023/12/08 02:13:43;;;;;;;;;;;;;;;20.73;41.46;101141.25;2070696;28;1547;-73
2023/12/08 02:14:45;;;;;;;;;;;;;;;20.73;41.42;101133.38;2069703;28;1543;-72
2023/12/08 02:15:46;;;;;;;;;;;;;;;20.72;41.50;101131.88;2069531;28;1934;-73
2023/12/08 02:16:50;;;;;;;;;;;;;;;20.74;41.56;101134.88;2069896;28;2323;-72
2023/12/08 02:17:52;;;;;;;;;;;;;;;20.75;41.38;101133.47;2062103;28;2036;-72
2023/12/08 02:18:53;;;;;;;;;;;;;;;20.75;41.52;101133.47;2071200;28;1892;-73
2023/12/08 02:19:55;;;;;;;;;;;;;;;20.75;41.60;101121.94;2069622;28;1986;-72
2023/12/08 02:20:57;;;;;;;;;;;;;;;20.75;41.43;101130.59;2068017;28;2259;-72
2023/12/08 02:21:58;;;;;;;;;;;;;;;20.75;41.53;101121.22;2069479;28;2071;-73
2023/12/08 02:23:03;;;;;;;;;;;;;;;20.76;41.65;101128.47;2069156;28;2307;-72
2023/12/08 02:24:05;;;;;;;;;;;;;;;20.76;41.61;101123.47;2070717;28;1923;-73
2023/12/08 02:25:06;;;;;;;;;;;;;;;20.76;41.75;101117.69;2072289;28;1627;-72
2023/12/08 02:26:10;;;;;;;;;;;;;;;20.76;41.79;101116.97;2071009;28;1998;-72
2023/12/08 02:27:11;;;;;;;;;;;;;;;20.76;41.53;101119.84;2066884;28;1907;-73
2023/12/08 02:28:13;;;;;;;;;;;;;;;20.76;41.57;101123.47;2070110;28;1973;-72
2023/12/08 02:29:14;;;;;;;;;;;;;;;20.76;41.58;101128.47;2070378;28;2104;-72
2023/12/08 02:30:16;;;;;;;;;;;;;;;20.76;41.45;101122.72;2067665;28;6061;-73
2023/12/08 02:31:19;;;;;;;;;;;;;;;20.75;41.50;101124.81;2064766;28;1955;-73
2023/12/08 02:32:32;;;;;;;;;;;;;;;20.76;41.65;101119.84;2071558;28;1604;-72
2023/12/08 02:33:33;;;;;;;;;;;;;;;20.75;41.57;101118.34;2070603;28;1875;-73
2023/12/08 02:34:34;;;;;;;;;;;;;;;20.74;41.69;101117.59;2066976;28;1599;-72
2023/12/08 02:35:37;;;;;;;;;;;;;;;20.74;41.65;101114.72;2069524;28;1915;-72
2023/12/08 02:36:39;;;;;;;;;;;;;;;20.74;41.51;101113.97;2067980;28;1981;-72
2023/12/08 02:37:42;;;;;;;;;;;;;;;20.74;41.53;101114.72;2067934;28;1974;-73
2023/12/08 02:38:43;;;;;;;;;;;;;;;20.74;41.52;101108.97;2076426;28;2016;-68
2023/12/08 02:39:48;;;;;;;;;;;;;;;20.74;41.59;101114.72;2071257;28;2228;-64
2023/12/08 02:40:49;;;;;;;;;;;;;;;20.74;41.46;101113.97;2062662;28;2051;-64
2023/12/08 02:41:51;;;;;;;;;;;;;;;20.72;41.69;101103.09;2070677;28;2030;-64
2023/12/08 02:42:52;;;;;;;;;;;;;;;20.72;41.57;101111.75;2068791;28;2013;-64
2023/12/08 02:43:53;;;;;;;;;;;;;;;20.72;41.69;101105.97;2068998;28;1793;-64
2023/12/08 02:44:55;;;;;;;;;;;;;;;20.71;41.68;101102.38;2069158;28;1937;-64
2023/12/08 02:45:56;;;;;;;;;;;;;;;20.71;41.58;101102.38;2069427;28;1794;-64
2023/12/08 02:46:58;;;;;;;;;;;;;;;20.72;41.46;101103.09;2068599;28;1849;-64
2023/12/08 02:47:59;;;;;;;;;;;;;;;20.71;41.60;101105.25;2067399;28;1951;-64
2023/12/08 02:49:01;;;;;;;;;;;;;;;20.70;41.51;101103.75;2071275;28;1981;-64
2023/12/08 02:50:02;;;;;;;;;;;;;;;20.69;41.54;101098.66;2068944;28;1922;-65
2023/12/08 02:51:04;;;;;;;;;;;;;;;20.70;41.64;101098.00;2070312;28;2303;-64
2023/12/08 02:52:05;;;;;;;;;;;;;;;20.71;41.56;101098.75;2069374;28;1705;-63
2023/12/08 02:53:07;;;;;;;;;;;;;;;20.71;41.47;101093.00;2067825;28;1900;-64
2023/12/08 02:54:08;;;;;;;;;;;;;;;20.70;41.46;101086.47;2066536;28;2308;-64
2023/12/08 02:55:09;;;;;;;;;;;;;;;20.71;41.43;101081.47;2069798;28;2052;-65
2023/12/08 02:56:11;;;;;;;;;;;;;;;20.71;41.68;101075.72;2068490;28;1814;-64
2023/12/08 02:57:12;;;;;;;;;;;;;;;20.71;41.67;101075.72;2071618;28;1981;-64
2023/12/08 02:58:14;;;;;;;;;;;;;;;20.71;41.71;101081.47;2069800;28;1615;-64
2023/12/08 02:59:15;;;;;;;;;;;;;;;20.71;41.70;101069.97;2070097;28;2003;-64
2023/12/08 03:00:17;;;;;;;;;;;;;;;20.71;41.63;101079.34;2068706;28;6003;-65
2023/12/08 03:01:18;;;;;;;;;;;;;;;20.71;41.59;101081.47;2071536;28;1648;-64
2023/12/08 03:02:20;;;;;;;;;;;;;;;20.73;41.50;101072.97;2070832;28;1857;-64
2023/12/08 03:03:21;;;;;;;;;;;;;;;20.73;41.54;101081.59;2069499;28;1778;-63
2023/12/08 03:04:23;;;;;;;;;;;;;;;20.74;41.68;101083.06;2069844;28;1962;-64
2023/12/08 03:05:24;;;;;;;;;;;;;;;20.74;41.82;101088.81;2065934;28;1946;-64
2023/12/08 03:06:25;;;;;;;;;;;;;;;20.74;41.74;101088.81;2066392;28;1806;-64
2023/12/08 03:07:27;;;;;;;;;;;;;;;20.73;41.93;101084.47;2070438;28;1943;-64
2023/12/08 03:08:29;;;;;;;;;;;;;;;20.72;41.69;101088.72;2068953;28;1927;-64
2023/12/08 03:09:30;;;;;;;;;;;;;;;20.74;41.75;101091.69;2070725;28;1928;-64
2023/12/08 03:10:32;;;;;;;;;;;;;;;20.73;41.80;101090.22;2066499;28;2174;-64
2023/12/08 03:11:33;;;;;;;;;;;;;;;20.73;41.83;101090.22;2071646;28;2011;-64
2023/12/08 03:12:34;;;;;;;;;;;;;;;20.72;41.86;101082.97;2070052;28;1628;-64
2023/12/08 03:13:36;;;;;;;;;;;;;;;20.72;41.81;101077.22;2066581;28;1624;-64
2023/12/08 03:14:37;;;;;;;;;;;;;;;20.71;41.69;101076.47;2070876;28;2005;-64
2023/12/08 03:15:39;;;;;;;;;;;;;;;20.72;41.64;101077.22;2068585;28;2144;-64
2023/12/08 03:16:40;;;;;;;;;;;;;;;20.72;41.61;101071.44;2071073;28;1934;-64
2023/12/08 03:17:42;;;;;;;;;;;;;;;20.71;41.66;101069.97;2069160;28;1984;-64
2023/12/08 03:18:43;;;;;;;;;;;;;;;20.72;41.59;101071.44;2070069;28;1643;-64
2023/12/08 03:19:45;;;;;;;;;;;;;;;20.70;41.67;101074.97;2068869;28;2076;-64
2023/12/08 03:20:47;;;;;;;;;;;;;;;20.69;41.81;101076.38;2068404;28;2237;-64
2023/12/08 03:21:48;;;;;;;;;;;;;;;20.69;41.63;101073.50;2068363;28;2040;-64
2023/12/08 03:22:50;;;;;;;;;;;;;;;20.70;41.60;101071.34;2067485;28;1923;-64
2023/12/08 03:23:51;;;;;;;;;;;;;;;20.70;41.53;101071.34;2069230;28;1945;-64
2023/12/08 03:24:52;;;;;;;;;;;;;;;20.68;41.72;101066.25;2071170;28;2357;-64
2023/12/08 03:25:54;;;;;;;;;;;;;;;20.68;41.65;101069.13;2069112;28;1877;-64
2023/12/08 03:26:55;;;;;;;;;;;;;;;20.67;41.64;101064.75;2070695;28;1922;-64
2023/12/08 03:27:57;;;;;;;;;;;;;;;20.67;41.71;101061.88;2066823;28;1631;-64
2023/12/08 03:28:58;;;;;;;;;;;;;;;20.67;41.65;101058.25;2066198;28;1951;-64
2023/12/08 03:29:59;;;;;;;;;;;;;;;20.67;41.75;101058.25;2068494;28;1567;-64
2023/12/08 03:31:01;;;;;;;;;;;;;;;20.66;41.63;101059.63;2068214;28;5954;-64
2023/12/08 03:32:02;;;;;;;;;;;;;;;20.67;41.56;101061.16;2066260;28;2004;-64
2023/12/08 03:33:04;;;;;;;;;;;;;;;20.66;41.59;101057.53;2071063;28;1915;-64
2023/12/08 03:34:06;;;;;;;;;;;;;;;20.66;41.73;101057.53;2071207;28;1926;-64
2023/12/08 03:35:07;;;;;;;;;;;;;;;20.66;41.63;101056.75;2067702;28;1592;-64
2023/12/08 03:36:09;;;;;;;;;;;;;;;20.66;41.63;101062.53;2066875;28;1650;-65
2023/12/08 03:37:10;;;;;;;;;;;;;;;20.65;41.56;101050.28;2071028;28;1918;-64
2023/12/08 03:38:12;;;;;;;;;;;;;;;20.65;41.72;101049.53;2069899;28;1525;-64
2023/12/08 03:39:13;;;;;;;;;;;;;;;20.65;41.68;101055.28;2070015;28;1903;-64
2023/12/08 03:40:14;;;;;;;;;;;;;;;20.65;41.69;101049.53;2067167;28;1642;-64
2023/12/08 03:41:16;;;;;;;;;;;;;;;20.65;41.64;101043.78;2069591;28;1722;-63
2023/12/08 03:42:17;;;;;;;;;;;;;;;20.65;41.72;101043.78;2070425;28;1999;-64
2023/12/08 03:43:19;;;;;;;;;;;;;;;20.65;41.53;101040.91;2070144;28;1919;-64
2023/12/08 03:44:20;;;;;;;;;;;;;;;20.66;41.57;101045.25;2069298;28;1894;-64
2023/12/08 03:45:21;;;;;;;;;;;;;;;20.65;41.67;101041.63;2069010;28;1644;-64
2023/12/08 03:46:23;;;;;;;;;;;;;;;20.66;41.42;101043.13;2070317;28;2012;-64
2023/12/08 03:47:24;;;;;;;;;;;;;;;20.66;41.51;101042.38;2070119;28;1915;-64
2023/12/08 03:48:27;;;;;;;;;;;;;;;20.65;41.53;101038.75;2067404;28;1942;-64
2023/12/08 03:49:29;;;;;;;;;;;;;;;20.67;41.52;101032.38;2070795;28;2140;-64
2023/12/08 03:50:30;;;;;;;;;;;;;;;20.67;41.55;101029.50;2069084;28;2104;-64
2023/12/08 03:51:32;;;;;;;;;;;;;;;20.68;41.64;101025.22;2069877;28;1938;-64
2023/12/08 03:52:33;;;;;;;;;;;;;;;20.69;41.53;101026.72;2070535;28;2117;-64
2023/12/08 03:53:35;;;;;;;;;;;;;;;20.69;41.58;101023.84;2069023;28;2009;-64
2023/12/08 03:54:36;;;;;;;;;;;;;;;20.70;41.61;101025.31;2069601;28;1902;-64
2023/12/08 03:55:37;;;;;;;;;;;;;;;20.69;41.64;101029.59;2068016;28;1603;-64
2023/12/08 03:56:39;;;;;;;;;;;;;;;20.69;41.57;101026.72;2071459;28;1567;-65
2023/12/08 03:57:40;;;;;;;;;;;;;;;20.70;41.64;101028.94;2070266;28;1929;-64
2023/12/08 03:58:42;;;;;;;;;;;;;;;20.70;41.88;101034.69;2068745;28;2043;-63
2023/12/08 03:59:43;;;;;;;;;;;;;;;20.70;41.77;101017.41;2069850;28;2093;-64
2023/12/08 04:00:45;;;;;;;;;;;;;;;20.71;41.57;101026.81;2069444;28;5988;-64
2023/12/08 04:01:46;;;;;;;;;;;;;;;20.71;41.62;101023.94;2068822;28;2074;-64
2023/12/08 04:02:48;;;;;;;;;;;;;;;20.74;41.53;101021.91;2070926;28;1968;-64
2023/12/08 04:03:49;;;;;;;;;;;;;;;20.74;41.62;101022.63;2069848;28;1961;-64
2023/12/08 04:04:51;;;;;;;;;;;;;;;20.75;41.55;101026.25;2068227;28;1929;-64
2023/12/08 04:05:52;;;;;;;;;;;;;;;20.75;41.51;101017.63;2067283;28;2028;-64
2023/12/08 04:06:54;;;;;;;;;;;;;;;20.75;41.48;101018.34;2068180;28;2004;-64
2023/12/08 04:07:55;;;;;;;;;;;;;;;20.75;41.49;101012.59;2069963;28;1544;-64
2023/12/08 04:08:57;;;;;;;;;;;;;;;20.75;41.56;101012.59;2069333;28;1794;-64
2023/12/08 04:09:58;;;;;;;;;;;;;;;20.76;41.61;101011.22;2070540;28;2091;-64
2023/12/08 04:11:00;;;;;;;;;;;;;;;20.76;41.80;100996.84;2068046;28;1955;-64
2023/12/08 04:12:01;;;;;;;;;;;;;;;20.77;41.60;101001.19;2067495;28;1967;-64
2023/12/08 04:13:03;;;;;;;;;;;;;;;20.77;41.63;100998.31;2070304;28;2248;-64
2023/12/08 04:14:04;;;;;;;;;;;;;;;20.78;41.51;100993.31;2067913;28;1973;-64
2023/12/08 04:15:06;;;;;;;;;;;;;;;20.78;41.50;100981.81;2071065;28;1806;-64
2023/12/08 04:16:07;;;;;;;;;;;;;;;20.78;41.76;100976.03;2067016;28;1537;-64
2023/12/08 04:17:09;;;;;;;;;;;;;;;20.78;41.57;100976.78;2069848;28;2013;-64
2023/12/08 04:18:10;;;;;;;;;;;;;;;20.78;41.68;100973.91;2067429;28;1934;-63
2023/12/08 04:19:15;;;;;;;;;;;;;;;20.78;41.92;100968.16;2069750;28;1814;-64
2023/12/08 04:20:17;;;;;;;;;;;;;;;20.76;41.83;100973.81;2069457;28;2230;-64
2023/12/08 04:21:18;;;;;;;;;;;;;;;20.76;41.64;100973.81;2071268;28;2241;-63
2023/12/08 04:22:20;;;;;;;;;;;;;;;20.76;41.61;100968.06;2070918;28;1857;-64
2023/12/08 04:23:22;;;;;;;;;;;;;;;20.76;41.83;100970.94;2071560;28;2004;-64
2023/12/08 04:24:23;;;;;;;;;;;;;;;20.76;41.75;100962.28;2069510;28;1936;-64
2023/12/08 04:25:24;;;;;;;;;;;;;;;20.77;41.79;100963.78;2071246;28;1516;-64
2023/12/08 04:26:26;;;;;;;;;;;;;;;20.77;41.74;100958.00;2069490;28;1997;-64
2023/12/08 04:27:27;;;;;;;;;;;;;;;20.76;41.74;100958.69;2066760;28;1568;-64
2023/12/08 04:28:29;;;;;;;;;;;;;;;20.75;41.89;100955.03;2071529;28;1560;-63
2023/12/08 04:29:30;;;;;;;;;;;;;;;20.76;41.78;100950.03;2069491;28;1859;-64
2023/12/08 04:30:32;;;;;;;;;;;;;;;20.74;41.93;100950.69;2068943;28;5990;-64
2023/12/08 04:31:33;;;;;;;;;;;;;;;20.75;41.76;100955.03;2070313;28;1977;-64
2023/12/08 04:32:34;;;;;;;;;;;;;;;20.75;41.74;100942.78;2070332;28;1974;-64
2023/12/08 04:33:36;;;;;;;;;;;;;;;20.75;41.61;100949.28;2068003;28;1984;-64
2023/12/08 04:34:38;;;;;;;;;;;;;;;20.77;41.64;100945.75;2069245;28;1898;-65
2023/12/08 04:35:39;;;;;;;;;;;;;;;20.77;41.60;100952.25;2070525;28;2037;-64
2023/12/08 04:36:41;;;;;;;;;;;;;;;20.77;41.55;100935.00;2069460;28;1984;-65
2023/12/08 04:37:42;;;;;;;;;;;;;;;20.78;41.42;100953.03;2068116;28;1911;-63
2023/12/08 04:38:44;;;;;;;;;;;;;;;20.78;41.69;100942.25;2066737;28;1864;-64
2023/12/08 04:39:45;;;;;;;;;;;;;;;20.78;41.87;100953.75;2069479;28;1508;-64
2023/12/08 04:40:46;;;;;;;;;;;;;;;20.79;41.65;100940.84;2069468;28;2021;-64
2023/12/08 04:41:48;;;;;;;;;;;;;;;20.79;41.73;100946.59;2069977;28;2098;-64
2023/12/08 04:42:50;;;;;;;;;;;;;;;20.78;41.54;100948.00;2067635;28;1694;-65
2023/12/08 04:43:51;;;;;;;;;;;;;;;20.79;41.72;100952.34;2070731;28;2231;-64
2023/12/08 04:44:53;;;;;;;;;;;;;;;20.78;41.97;100948.00;2070174;28;1951;-64
2023/12/08 04:45:55;;;;;;;;;;;;;;;20.78;41.71;100953.03;2071470;28;1981;-64
2023/12/08 04:46:56;;;;;;;;;;;;;;;20.77;41.96;100946.50;2071038;28;2060;-64
2023/12/08 04:47:58;;;;;;;;;;;;;;;20.79;41.76;100949.47;2070743;28;2022;-64
2023/12/08 04:48:59;;;;;;;;;;;;;;;20.79;41.83;100943.72;2071644;28;1954;-64
2023/12/08 04:50:02;;;;;;;;;;;;;;;20.78;41.68;100948.00;2072194;28;1722;-64
2023/12/08 04:51:03;;;;;;;;;;;;;;;20.78;41.83;100945.13;2070427;28;1934;-64
2023/12/08 04:52:05;;;;;;;;;;;;;;;20.78;41.65;100947.28;2070495;28;1906;-64
2023/12/08 04:53:06;;;;;;;;;;;;;;;20.77;41.78;100949.38;2071657;28;1608;-64
2023/12/08 04:54:08;;;;;;;;;;;;;;;20.77;42.04;100948.66;2069022;28;1851;-64
2023/12/08 04:55:10;;;;;;;;;;;;;;;20.77;41.71;100957.28;2070266;28;1961;-64
2023/12/08 04:56:11;;;;;;;;;;;;;;;20.78;41.91;100965.28;2070160;28;2044;-64
2023/12/08 04:57:12;;;;;;;;;;;;;;;20.78;41.88;100964.53;2071528;28;2259;-64
2023/12/08 04:58:16;;;;;;;;;;;;;;;20.78;41.73;100962.41;2074247;28;2041;-64
2023/12/08 04:59:17;;;;;;;;;;;;;;;20.78;41.72;100971.03;2071925;28;2130;-65
2023/12/08 05:00:19;;;;;;;;;;;;;;;20.78;41.71;100973.91;2070604;28;6093;-64
2023/12/08 05:01:20;;;;;;;;;;;;;;;20.77;41.75;100972.41;2069035;28;2081;-64
2023/12/08 05:02:22;;;;;;;;;;;;;;;20.78;41.59;100967.41;2068976;28;2060;-64
2023/12/08 05:03:23;;;;;;;;;;;;;;;20.78;41.79;100968.16;2070367;28;1869;-65
2023/12/08 05:04:25;;;;;;;;;;;;;;;20.78;41.77;100959.50;2068369;28;1680;-64
2023/12/08 05:05:26;;;;;;;;;;;;;;;20.78;41.73;100959.50;2071057;28;1946;-64
2023/12/08 05:06:27;;;;;;;;;;;;;;;20.77;41.70;100958.00;2072414;28;1529;-64
2023/12/08 05:07:29;;;;;;;;;;;;;;;20.77;41.78;100952.25;2071384;28;1897;-64
2023/12/08 05:08:31;;;;;;;;;;;;;;;20.78;41.65;100948.00;2070979;28;2117;-64
2023/12/08 05:09:32;;;;;;;;;;;;;;;20.78;41.70;100953.03;2069377;28;2266;-64
2023/12/08 05:10:33;;;;;;;;;;;;;;;20.79;41.74;100951.63;2072663;28;2199;-65
2023/12/08 05:11:35;;;;;;;;;;;;;;;20.78;41.53;100953.75;2071593;28;1575;-64
2023/12/08 05:12:36;;;;;;;;;;;;;;;20.78;41.66;100958.78;2068552;28;1983;-64
2023/12/08 05:13:38;;;;;;;;;;;;;;;20.78;41.62;100956.63;2069984;28;2309;-64
2023/12/08 05:14:39;;;;;;;;;;;;;;;20.77;41.72;100957.28;2071413;28;1888;-64
2023/12/08 05:15:41;;;;;;;;;;;;;;;20.78;41.72;100965.28;2071281;28;1810;-64
2023/12/08 05:16:43;;;;;;;;;;;;;;;20.78;41.75;100967.41;2068953;28;1916;-64
2023/12/08 05:17:44;;;;;;;;;;;;;;;20.79;41.88;100969.63;2067809;28;1651;-64
2023/12/08 05:18:46;;;;;;;;;;;;;;;20.79;41.77;100966.75;2071691;28;1977;-64
2023/12/08 05:19:47;;;;;;;;;;;;;;;20.80;41.74;100974.00;2070984;28;1963;-64
2023/12/08 05:20:49;;;;;;;;;;;;;;;20.80;41.72;100962.50;2070795;28;1971;-64